createdAt,value
2019-04-16T00:02:48.488Z,5.60
2019-04-16T00:05:51.449Z,5.63
2019-04-16T00:08:46.272Z,5.87
2019-04-16T00:11:47.212Z,6.17
2019-04-16T00:14:41.692Z,5.60
2019-04-16T00:17:31.504Z,5.53
2019-04-16T00:20:22.654Z,6.37
2019-04-16T00:23:18.427Z,6.10
2019-04-16T00:26:08.260Z,7.70
2019-04-16T00:29:01.596Z,5.73
2019-04-16T00:31:53.551Z,5.97
2019-04-16T00:34:44.865Z,5.73
2019-04-16T00:37:35.519Z,6.90
2019-04-16T00:40:26.603Z,5.47
2019-04-16T00:43:17.149Z,7.20
2019-04-16T00:46:08.310Z,6.60
2019-04-16T00:48:58.089Z,6.50
2019-04-16T00:51:48.521Z,6.20
2019-04-16T00:54:39.216Z,5.30
2019-04-16T00:57:30.098Z,6.43
2019-04-16T01:00:20.054Z,6.03
2019-04-16T01:03:10.444Z,7.23
2019-04-16T01:06:00.471Z,6.90
2019-04-16T01:08:54.753Z,6.17
2019-04-16T01:11:41.936Z,6.97
2019-04-16T01:14:32.162Z,6.03
2019-04-16T01:17:22.270Z,6.30
2019-04-16T01:20:13.113Z,7.57
2019-04-16T01:23:03.475Z,6.43
2019-04-16T01:25:55.664Z,7.33
2019-04-16T01:28:51.055Z,6.23
2019-04-16T01:31:58.517Z,7.20
2019-04-16T01:35:18.653Z,7.67
2019-04-16T01:38:20.316Z,6.90
2019-04-16T01:41:12.151Z,6.00
2019-04-16T01:44:01.978Z,6.37
2019-04-16T01:46:52.018Z,7.53
2019-04-16T01:49:42.157Z,6.30
2019-04-16T01:52:32.313Z,6.03
2019-04-16T01:55:25.547Z,7.17
2019-04-16T01:58:13.597Z,6.17
2019-04-16T02:01:04.144Z,6.50
2019-04-16T02:03:53.495Z,7.00
2019-04-16T02:06:42.844Z,6.87
2019-04-16T02:09:34.713Z,6.97
2019-04-16T02:12:24.356Z,6.90
2019-04-16T02:15:14.214Z,6.67
2019-04-16T02:18:04.073Z,6.60
2019-04-16T02:20:53.883Z,7.70
2019-04-16T02:23:45.402Z,7.17
2019-04-16T02:26:35.688Z,6.70
2019-04-16T02:29:29.802Z,7.57
2019-04-16T02:32:16.638Z,6.90
2019-04-16T02:35:07.293Z,7.33
2019-04-16T02:37:57.389Z,7.70
2019-04-16T02:40:51.988Z,8.03
2019-04-16T02:43:41.030Z,6.70
2019-04-16T02:46:32.484Z,7.63
2019-04-16T02:49:24.486Z,6.63
2019-04-16T02:52:20.784Z,6.90
2019-04-16T02:55:42.927Z,7.00
2019-04-16T02:58:34.399Z,6.63
2019-04-16T03:02:00.074Z,9.10
2019-04-16T03:04:58.216Z,8.83
2019-04-16T03:07:47.312Z,7.87
2019-04-16T03:10:37.415Z,7.67
2019-04-16T03:13:28.263Z,7.30
2019-04-16T03:16:30.975Z,7.40
2019-04-16T03:19:25.469Z,7.23
2019-04-16T03:22:15.142Z,7.60
2019-04-16T03:25:05.680Z,6.97
2019-04-16T03:27:55.765Z,8.57
2019-04-16T03:30:45.338Z,7.40
2019-04-16T03:33:35.520Z,8.23
2019-04-16T03:36:26.487Z,8.10
2019-04-16T03:39:16.615Z,8.00
2019-04-16T03:42:06.853Z,7.53
2019-04-16T03:44:56.680Z,8.23
2019-04-16T03:47:50.941Z,8.23
2019-04-16T03:50:37.558Z,8.90
2019-04-16T03:53:27.553Z,7.40
2019-04-16T03:56:17.563Z,7.63
2019-04-16T03:59:10.731Z,8.20
2019-04-16T04:01:59.025Z,7.33
2019-04-16T04:04:57.580Z,9.20
2019-04-16T04:07:45.874Z,8.80
2019-04-16T04:10:37.074Z,8.30
2019-04-16T04:13:26.162Z,9.63
2019-04-16T04:16:16.430Z,9.87
2019-04-16T04:19:06.636Z,7.37
2019-04-16T04:21:56.140Z,8.80
2019-04-16T04:24:45.902Z,8.63
2019-04-16T04:27:35.635Z,9.30
2019-04-16T04:30:28.692Z,7.90
2019-04-16T04:33:40.909Z,8.00
2019-04-16T04:36:28.418Z,8.20
2019-04-16T04:39:18.427Z,8.40
2019-04-16T04:42:08.682Z,9.23
2019-04-16T04:44:59.275Z,7.90
2019-04-16T04:47:51.590Z,8.03
2019-04-16T04:50:41.251Z,7.70
2019-04-16T04:53:31.513Z,8.43
2019-04-16T04:56:21.467Z,8.27
2019-04-16T04:59:11.496Z,8.93
2019-04-16T05:02:02.584Z,8.93
2019-04-16T05:04:57.886Z,8.13
2019-04-16T05:07:47.773Z,8.87
2019-04-16T05:10:42.791Z,8.93
2019-04-16T05:13:29.855Z,8.17
2019-04-16T05:16:19.833Z,9.23
2019-04-16T05:19:13.802Z,8.20
2019-04-16T05:22:00.835Z,8.20
2019-04-16T05:24:51.005Z,8.70
2019-04-16T05:27:41.586Z,9.00
2019-04-16T05:30:31.495Z,8.87
2019-04-16T05:33:21.931Z,8.83
2019-04-16T05:36:14.568Z,9.27
2019-04-16T05:39:06.656Z,8.80
2019-04-16T05:41:57.059Z,8.73
2019-04-16T05:44:46.730Z,9.20
2019-04-16T05:47:36.712Z,8.87
2019-04-16T05:50:29.650Z,8.53
2019-04-16T05:53:18.634Z,8.73
2019-04-16T05:56:24.095Z,9.00
2019-04-16T05:59:13.295Z,9.27
2019-04-16T06:02:25.301Z,8.60
2019-04-16T06:05:15.397Z,9.30
2019-04-16T06:08:11.951Z,9.50
2019-04-16T06:11:01.770Z,8.17
2019-04-16T06:14:00.315Z,8.40
2019-04-16T06:17:19.000Z,8.80
2019-04-16T06:20:19.568Z,9.10
2019-04-16T06:23:24.735Z,7.50
2019-04-16T06:26:34.022Z,7.47
2019-04-16T06:29:33.706Z,9.50
2019-04-16T06:32:31.874Z,9.67
2019-04-16T06:35:43.396Z,8.37
2019-04-16T06:38:37.746Z,8.23
2019-04-16T06:41:58.831Z,8.43
2019-04-16T06:44:54.091Z,9.00
2019-04-16T06:48:13.125Z,8.43
2019-04-16T06:51:32.935Z,8.23
2019-04-16T06:54:34.378Z,9.23
2019-04-16T06:57:42.958Z,8.93
2019-04-16T07:01:11.292Z,8.50
2019-04-16T07:04:08.621Z,8.80
2019-04-16T07:07:16.527Z,7.40
2019-04-16T07:10:13.919Z,9.50
2019-04-16T07:13:04.019Z,8.23
2019-04-16T07:15:56.896Z,9.40
2019-04-16T07:18:45.935Z,7.93
2019-04-16T07:21:35.763Z,8.00
2019-04-16T07:24:30.194Z,8.17
2019-04-16T07:27:20.051Z,9.30
2019-04-16T07:30:19.709Z,8.23
2019-04-16T07:33:15.990Z,7.03
2019-04-16T07:36:24.219Z,8.73
2019-04-16T07:39:29.803Z,8.60
2019-04-16T07:42:22.796Z,7.47
2019-04-16T07:45:25.911Z,7.23
2019-04-16T07:48:35.151Z,8.00
2019-04-16T07:51:30.052Z,8.47
2019-04-16T07:54:37.803Z,7.80
2019-04-16T07:57:27.594Z,9.17
2019-04-16T08:00:18.031Z,9.23
2019-04-16T08:03:07.813Z,9.07
2019-04-16T08:05:57.912Z,8.63
2019-04-16T08:08:48.958Z,8.47
2019-04-16T08:11:39.086Z,10.20
2019-04-16T08:14:29.387Z,9.10
2019-04-16T08:17:19.465Z,9.00
2019-04-16T08:20:09.604Z,8.43
2019-04-16T08:23:02.034Z,8.53
2019-04-16T08:26:01.956Z,8.17
2019-04-16T08:28:43.218Z,8.47
2019-04-16T08:31:35.715Z,9.50
2019-04-16T08:34:24.680Z,8.60
2019-04-16T08:37:14.153Z,8.77
2019-04-16T08:40:03.909Z,8.47
2019-04-16T08:42:56.989Z,8.90
2019-04-16T08:45:45.386Z,8.43
2019-04-16T08:48:35.140Z,7.70
2019-04-16T08:51:30.973Z,8.10
2019-04-16T08:54:18.182Z,8.27
2019-04-16T08:57:08.403Z,9.73
2019-04-16T08:59:58.453Z,8.87
2019-04-16T09:02:48.533Z,9.27
2019-04-16T09:05:41.273Z,9.20
2019-04-16T09:08:44.018Z,8.57
2019-04-16T09:11:35.465Z,10.07
2019-04-16T09:14:28.157Z,11.33
2019-04-16T09:17:36.715Z,8.73
2019-04-16T09:20:31.534Z,8.80
2019-04-16T09:23:22.740Z,8.70
2019-04-16T09:26:30.930Z,7.83
2019-04-16T09:29:39.134Z,8.20
2019-04-16T09:33:00.404Z,10.33
2019-04-16T09:36:10.474Z,10.00
2019-04-16T09:39:05.976Z,8.80
2019-04-16T09:41:56.232Z,8.20
2019-04-16T09:44:46.319Z,9.83
2019-04-16T09:47:36.352Z,8.97
2019-04-16T09:50:26.283Z,10.53
2019-04-16T09:53:16.291Z,8.53
2019-04-16T09:56:28.367Z,9.30
2019-04-16T09:59:39.665Z,10.10
2019-04-16T10:02:32.822Z,10.47
2019-04-16T10:05:22.395Z,10.00
2019-04-16T10:08:12.645Z,9.67
2019-04-16T10:11:06.003Z,8.70
2019-04-16T10:13:54.632Z,10.20
2019-04-16T10:16:45.170Z,8.50
2019-04-16T10:19:35.301Z,9.00
2019-04-16T10:22:25.256Z,10.80
2019-04-16T10:25:15.902Z,10.77
2019-04-16T10:28:14.993Z,9.10
2019-04-16T10:31:05.173Z,10.07
2019-04-16T10:33:55.070Z,8.37
2019-04-16T10:36:44.923Z,9.10
2019-04-16T10:39:39.597Z,9.50
2019-04-16T10:42:51.503Z,10.47
2019-04-16T10:45:56.249Z,9.60
2019-04-16T10:48:53.783Z,10.50
2019-04-16T10:52:01.661Z,10.20
2019-04-16T10:55:09.403Z,11.30
2019-04-16T10:58:17.351Z,9.90
2019-04-16T11:01:55.344Z,10.47
2019-04-16T11:05:02.183Z,10.80
2019-04-16T11:07:51.622Z,10.50
2019-04-16T11:10:41.998Z,11.70
2019-04-16T11:13:35.015Z,11.90
2019-04-16T11:16:25.125Z,11.60
2019-04-16T11:19:15.264Z,10.93
2019-04-16T11:22:05.671Z,10.27
2019-04-16T11:24:55.696Z,11.37
2019-04-16T11:27:46.013Z,10.43
2019-04-16T11:30:41.281Z,10.07
2019-04-16T11:33:31.227Z,11.37
2019-04-16T11:36:21.172Z,10.53
2019-04-16T11:39:11.898Z,10.90
2019-04-16T11:42:02.193Z,10.90
2019-04-16T11:44:52.108Z,10.83
2019-04-16T11:47:43.221Z,11.37
2019-04-16T11:50:35.854Z,9.80
2019-04-16T11:53:24.303Z,10.83
2019-04-16T11:56:14.093Z,9.90
2019-04-16T11:59:05.199Z,11.00
2019-04-16T12:02:10.651Z,11.90
2019-04-16T12:05:04.925Z,11.63
2019-04-16T12:08:03.720Z,10.20
2019-04-16T12:11:12.307Z,10.60
2019-04-16T12:14:30.990Z,10.90
2019-04-16T12:17:22.193Z,11.23
2019-04-16T12:20:22.803Z,11.60
2019-04-16T12:23:32.241Z,9.17
2019-04-16T12:26:49.073Z,11.20
2019-04-16T12:29:49.402Z,10.33
2019-04-16T12:32:47.418Z,11.17
2019-04-16T12:35:54.373Z,13.00
2019-04-16T12:38:57.659Z,10.80
2019-04-16T12:42:06.629Z,11.87
2019-04-16T12:45:00.438Z,12.30
2019-04-16T12:48:08.154Z,10.87
2019-04-16T12:51:19.559Z,10.57
2019-04-16T12:54:28.719Z,10.33
2019-04-16T12:57:33.782Z,10.07
2019-04-16T13:00:55.415Z,8.70
2019-04-16T13:03:52.610Z,9.90
2019-04-16T13:06:48.951Z,10.90
2019-04-16T13:09:56.777Z,10.23
2019-04-16T13:13:17.708Z,11.20
2019-04-16T13:16:13.548Z,11.30
2019-04-16T13:19:21.679Z,10.03
2019-04-16T13:22:12.128Z,11.90
2019-04-16T13:25:08.997Z,11.77
2019-04-16T13:27:58.842Z,10.33
2019-04-16T13:30:48.399Z,11.37
2019-04-16T13:33:38.310Z,11.60
2019-04-16T13:36:28.329Z,10.57
2019-04-16T13:39:47.700Z,11.10
2019-04-16T13:42:38.034Z,12.00
2019-04-16T13:45:31.213Z,10.13
2019-04-16T13:48:29.264Z,11.40
2019-04-16T13:51:21.344Z,10.93
2019-04-16T13:54:21.208Z,9.63
2019-04-16T13:57:14.730Z,11.70
2019-04-16T14:00:14.003Z,10.43
2019-04-16T14:03:08.529Z,9.60
2019-04-16T14:05:58.385Z,10.57
2019-04-16T14:08:48.434Z,11.07
2019-04-16T14:11:38.118Z,9.47
2019-04-16T14:14:29.464Z,10.17
2019-04-16T14:17:22.651Z,12.87
2019-04-16T14:20:13.973Z,10.40
2019-04-16T14:23:04.602Z,11.50
2019-04-16T14:25:54.502Z,10.10
2019-04-16T14:28:52.114Z,10.77
2019-04-16T14:31:36.313Z,10.00
2019-04-16T14:35:00.231Z,10.50
2019-04-16T14:37:49.940Z,11.27
2019-04-16T14:40:42.355Z,10.20
2019-04-16T14:43:35.552Z,9.40
2019-04-16T14:46:28.281Z,9.93
2019-04-16T14:49:18.241Z,11.10
2019-04-16T14:52:09.092Z,10.83
2019-04-16T14:55:03.873Z,10.03
2019-04-16T14:58:05.063Z,10.90
2019-04-16T15:01:05.370Z,10.27
2019-04-16T15:04:13.394Z,10.27
2019-04-16T15:07:12.317Z,9.60
2019-04-16T15:10:27.415Z,11.07
2019-04-16T15:13:31.120Z,9.10
2019-04-16T15:16:36.744Z,10.27
2019-04-16T15:19:28.762Z,11.20
2019-04-16T15:22:36.115Z,10.33
2019-04-16T15:25:29.413Z,9.80
2019-04-16T15:28:23.091Z,10.93
2019-04-16T15:31:19.650Z,10.00
2019-04-16T15:34:15.587Z,8.73
2019-04-16T15:37:19.273Z,9.70
2019-04-16T15:40:19.028Z,8.43
2019-04-16T15:43:31.113Z,8.17
2019-04-16T15:46:41.381Z,8.30
2019-04-16T15:49:55.662Z,8.87
2019-04-16T15:53:02.616Z,8.53
2019-04-16T15:55:57.898Z,8.20
2019-04-16T15:59:08.263Z,9.00
2019-04-16T16:02:14.797Z,9.13
2019-04-16T16:05:25.994Z,7.73
2019-04-16T16:08:43.909Z,8.80
2019-04-16T16:11:51.822Z,8.70
2019-04-16T16:14:41.864Z,8.40
2019-04-16T16:17:32.962Z,10.17
2019-04-16T16:20:23.048Z,9.20
2019-04-16T16:23:13.648Z,9.30
2019-04-16T16:26:03.472Z,8.27
2019-04-16T16:28:53.398Z,8.20
2019-04-16T16:31:44.240Z,9.00
2019-04-16T16:34:34.657Z,8.63
2019-04-16T16:37:24.453Z,9.83
2019-04-16T16:40:16.058Z,9.27
2019-04-16T16:43:08.381Z,8.93
2019-04-16T16:46:26.847Z,9.17
2019-04-16T16:49:16.769Z,9.20
2019-04-16T16:52:24.349Z,8.20
2019-04-16T16:55:29.343Z,9.37
2019-04-16T16:58:42.182Z,8.43
2019-04-16T17:01:38.832Z,9.33
2019-04-16T17:04:31.714Z,9.17
2019-04-16T17:07:20.852Z,8.53
2019-04-16T17:10:10.747Z,9.10
2019-04-16T17:13:00.935Z,9.23
2019-04-16T17:15:50.916Z,8.57
2019-04-16T17:18:40.929Z,8.70
2019-04-16T17:21:30.029Z,8.97
2019-04-16T17:24:19.750Z,8.10
2019-04-16T17:27:09.601Z,8.80
2019-04-16T17:29:59.629Z,8.43
2019-04-16T17:32:49.564Z,9.23
2019-04-16T17:35:39.493Z,7.43
2019-04-16T17:38:29.280Z,7.80
2019-04-16T17:41:24.547Z,8.37
2019-04-16T17:44:29.231Z,6.40
2019-04-16T17:47:36.479Z,6.80
2019-04-16T17:50:41.708Z,7.40
2019-04-16T17:53:44.244Z,7.10
2019-04-16T17:57:08.518Z,7.10
2019-04-16T18:00:16.973Z,7.10
2019-04-16T18:03:24.869Z,8.37
2019-04-16T18:06:32.494Z,7.10
2019-04-16T18:09:44.085Z,8.00
2019-04-16T18:12:56.459Z,7.97
2019-04-16T18:15:54.191Z,7.50
2019-04-16T18:18:55.566Z,6.70
2019-04-16T18:22:11.013Z,7.40
2019-04-16T18:25:25.583Z,7.10
2019-04-16T18:28:29.264Z,6.80
2019-04-16T18:31:27.877Z,7.30
2019-04-16T18:34:40.275Z,7.37
2019-04-16T18:37:48.738Z,7.00
2019-04-16T18:40:45.749Z,6.73
2019-04-16T18:43:53.155Z,7.40
2019-04-16T18:47:11.681Z,6.50
2019-04-16T18:50:05.405Z,6.83
2019-04-16T18:52:55.478Z,7.00
2019-04-16T18:55:45.529Z,6.87
2019-04-16T18:58:35.543Z,6.30
2019-04-16T19:01:32.613Z,6.53
2019-04-16T19:04:21.552Z,15.23
2019-04-16T19:07:11.606Z,13.20
2019-04-16T19:10:00.885Z,8.10
2019-04-16T19:12:51.614Z,7.87
2019-04-16T19:15:41.262Z,7.90
2019-04-16T19:18:30.812Z,7.10
2019-04-16T19:21:20.923Z,6.80
2019-04-16T19:24:10.212Z,7.63
2019-04-16T19:27:00.547Z,7.60
2019-04-16T19:29:50.235Z,7.73
2019-04-16T19:32:39.918Z,7.60
2019-04-16T19:35:29.521Z,7.83
2019-04-16T19:38:19.856Z,7.13
2019-04-16T19:41:09.889Z,7.53
2019-04-16T19:43:59.843Z,9.77
2019-04-16T19:46:52.595Z,7.40
2019-04-16T19:49:40.551Z,7.50
2019-04-16T19:52:30.689Z,7.00
2019-04-16T19:55:20.363Z,7.20
2019-04-16T19:58:10.450Z,7.77
2019-04-16T20:01:00.864Z,7.73
2019-04-16T20:03:51.239Z,7.50
2019-04-16T20:06:41.500Z,7.40
2019-04-16T20:09:31.629Z,8.00
2019-04-16T20:12:21.296Z,8.47
2019-04-16T20:15:11.401Z,8.50
2019-04-16T20:18:01.647Z,8.10
2019-04-16T20:20:50.943Z,8.03
2019-04-16T20:23:40.685Z,7.90
2019-04-16T20:26:32.432Z,7.80
2019-04-16T20:29:22.354Z,8.70
2019-04-16T20:32:13.284Z,9.23
2019-04-16T20:35:03.791Z,7.73
2019-04-16T20:37:55.291Z,9.90
2019-04-16T20:40:45.397Z,8.60
2019-04-16T20:43:34.946Z,9.43
2019-04-16T20:46:25.199Z,8.40
2019-04-16T20:49:16.868Z,9.33
2019-04-16T20:52:06.380Z,9.37
2019-04-16T20:54:56.204Z,8.60
2019-04-16T20:57:46.022Z,10.17
2019-04-16T21:00:42.313Z,8.23
2019-04-16T21:03:31.262Z,7.93
2019-04-16T21:06:21.515Z,9.00
2019-04-16T21:09:11.522Z,8.37
2019-04-16T21:12:00.943Z,9.00
2019-04-16T21:14:53.586Z,9.60
2019-04-16T21:17:42.310Z,7.90
2019-04-16T21:20:32.163Z,9.40
2019-04-16T21:23:22.030Z,7.80
2019-04-16T21:26:11.892Z,8.57
2019-04-16T21:29:23.438Z,7.73
2019-04-16T21:32:31.409Z,8.10
2019-04-16T21:35:28.766Z,7.20
2019-04-16T21:38:36.528Z,7.90
2019-04-16T21:41:28.527Z,7.40
2019-04-16T21:44:18.001Z,8.10
2019-04-16T21:47:06.942Z,7.17
2019-04-16T21:49:56.706Z,9.17
2019-04-16T21:52:46.623Z,7.63
2019-04-16T21:55:36.893Z,8.23
2019-04-16T21:58:28.513Z,9.17
2019-04-16T22:01:35.838Z,8.87
2019-04-16T22:04:26.431Z,8.83
2019-04-16T22:07:16.497Z,7.60
2019-04-16T22:10:07.344Z,7.37
2019-04-16T22:12:57.545Z,7.80
2019-04-16T22:15:46.860Z,7.93
2019-04-16T22:18:37.577Z,7.63
2019-04-16T22:21:28.241Z,8.67
2019-04-16T22:24:19.729Z,8.83
2019-04-16T22:27:09.835Z,8.40
2019-04-16T22:29:59.524Z,8.87
2019-04-16T22:32:49.743Z,9.27
2019-04-16T22:35:39.775Z,8.80
2019-04-16T22:38:31.403Z,8.97
2019-04-16T22:41:29.359Z,8.00
2019-04-16T22:44:28.902Z,9.20
2019-04-16T22:47:22.250Z,7.87
2019-04-16T22:50:16.983Z,7.50
2019-04-16T22:53:04.269Z,8.37
2019-04-16T22:55:56.706Z,8.30
2019-04-16T22:58:51.657Z,8.10
2019-04-16T23:01:44.986Z,7.27
2019-04-16T23:04:34.621Z,8.13
2019-04-16T23:07:24.552Z,7.23
2019-04-16T23:10:14.353Z,8.47
2019-04-16T23:13:04.433Z,8.57
2019-04-16T23:15:53.988Z,7.00
2019-04-16T23:18:48.793Z,7.80
2019-04-16T23:21:36.092Z,7.93
2019-04-16T23:24:27.750Z,7.60
2019-04-16T23:27:17.239Z,8.80
2019-04-16T23:30:09.065Z,7.80
2019-04-16T23:33:00.028Z,7.63
2019-04-16T23:35:50.515Z,8.27
2019-04-16T23:38:40.640Z,8.40
2019-04-16T23:41:30.330Z,7.67
2019-04-16T23:44:37.529Z,6.43
2019-04-16T23:47:51.178Z,7.57
2019-04-16T23:51:03.441Z,6.77
2019-04-16T23:53:58.795Z,7.50
2019-04-16T23:57:13.969Z,8.00
